createdAt,value
2022-12-18T00:00:06.181Z,-5.27
2022-12-18T00:02:34.229Z,-5.28
2022-12-18T00:05:01.965Z,-5.26
2022-12-18T00:07:29.538Z,-5.25
2022-12-18T00:09:57.150Z,-5.20
2022-12-18T00:12:24.688Z,-5.19
2022-12-18T00:14:52.331Z,-5.20
2022-12-18T00:17:19.928Z,-5.19
2022-12-18T00:19:48.241Z,-5.20
2022-12-18T00:22:16.761Z,-5.20
2022-12-18T00:24:44.372Z,-5.19
2022-12-18T00:27:11.898Z,-5.18
2022-12-18T00:29:39.453Z,-5.17
2022-12-18T00:32:06.960Z,-5.16
2022-12-18T00:34:34.555Z,-5.16
2022-12-18T00:37:02.109Z,-5.16
2022-12-18T00:39:30.299Z,-5.17
2022-12-18T00:41:57.889Z,-5.17
2022-12-18T00:44:25.481Z,-5.18
2022-12-18T00:46:53.018Z,-5.19
2022-12-18T00:49:20.916Z,-5.18
2022-12-18T00:51:49.649Z,-5.16
2022-12-18T00:54:17.634Z,-5.14
2022-12-18T00:56:49.079Z,-5.12
2022-12-18T00:59:18.750Z,-5.13
2022-12-18T01:01:47.934Z,-5.13
2022-12-18T01:04:16.570Z,-5.15
2022-12-18T01:06:44.586Z,-5.16
2022-12-18T01:09:12.374Z,-5.16
2022-12-18T01:11:40.702Z,-5.16
2022-12-18T01:14:08.325Z,-5.17
2022-12-18T01:16:36.019Z,-5.16
2022-12-18T01:19:03.778Z,-5.17
2022-12-18T01:21:31.521Z,-5.17
2022-12-18T01:23:59.481Z,-5.16
2022-12-18T01:26:27.820Z,-5.16
2022-12-18T01:28:57.339Z,-5.15
2022-12-18T01:31:28.363Z,-5.14
2022-12-18T01:33:57.394Z,-5.14
2022-12-18T01:36:27.771Z,-5.14
2022-12-18T01:38:56.579Z,-5.15
2022-12-18T01:41:26.893Z,-5.15
2022-12-18T01:43:59.387Z,-5.16
2022-12-18T01:46:28.181Z,-5.17
2022-12-18T01:49:02.078Z,-5.18
2022-12-18T01:51:31.742Z,-5.17
2022-12-18T01:54:00.301Z,-5.17
2022-12-18T01:56:28.055Z,-5.16
2022-12-18T01:59:06.145Z,-5.15
2022-12-18T02:01:36.356Z,-5.15
2022-12-18T02:04:24.808Z,-5.15
2022-12-18T02:07:01.572Z,-5.17
2022-12-18T02:09:38.096Z,-5.18
2022-12-18T02:12:16.784Z,-5.19
2022-12-18T02:14:56.531Z,-5.18
2022-12-18T02:17:35.446Z,-5.17
2022-12-18T02:20:14.140Z,-5.16
2022-12-18T02:22:59.699Z,-5.15
2022-12-18T02:25:33.702Z,-5.13
2022-12-18T02:28:06.205Z,-5.14
2022-12-18T02:30:37.153Z,-5.14
2022-12-18T02:33:09.499Z,-5.12
2022-12-18T02:35:38.403Z,-5.14
2022-12-18T02:38:07.380Z,-5.15
2022-12-18T02:40:36.847Z,-5.17
2022-12-18T02:43:13.793Z,-5.17
2022-12-18T02:45:54.263Z,-5.13
2022-12-18T02:48:27.082Z,-5.09
2022-12-18T02:51:15.429Z,-5.10
2022-12-18T02:53:59.027Z,-5.12
2022-12-18T02:56:36.736Z,-5.13
2022-12-18T02:59:17.152Z,-5.15
2022-12-18T03:02:00.325Z,-5.17
2022-12-18T03:04:31.932Z,-5.19
2022-12-18T03:07:06.724Z,-5.23
2022-12-18T03:09:39.345Z,-5.24
2022-12-18T03:12:35.555Z,-5.20
2022-12-18T03:15:22.449Z,-5.15
2022-12-18T03:17:56.126Z,-5.11
2022-12-18T03:20:26.911Z,-5.10
2022-12-18T03:23:03.486Z,-5.11
2022-12-18T03:25:33.159Z,-5.12
2022-12-18T03:28:03.497Z,-5.15
2022-12-18T03:30:34.946Z,-5.18
2022-12-18T03:33:09.785Z,-5.21
2022-12-18T03:35:42.871Z,-5.22
2022-12-18T03:38:11.797Z,-5.18
2022-12-18T03:40:48.840Z,-5.16
2022-12-18T03:43:38.652Z,-5.13
2022-12-18T03:46:14.641Z,-5.15
2022-12-18T03:48:53.811Z,-5.19
2022-12-18T03:51:29.469Z,-5.22
2022-12-18T03:54:01.295Z,-5.25
2022-12-18T03:56:32.945Z,-5.27
2022-12-18T03:59:02.492Z,-5.26
2022-12-18T04:01:38.431Z,-5.25
2022-12-18T04:04:07.866Z,-5.21
2022-12-18T04:06:36.499Z,-5.18
2022-12-18T04:09:06.449Z,-5.18
2022-12-18T04:11:34.431Z,-5.18
2022-12-18T04:14:05.971Z,-5.21
2022-12-18T04:16:35.111Z,-5.24
2022-12-18T04:19:02.889Z,-5.24
2022-12-18T04:21:31.000Z,-5.25
2022-12-18T04:23:58.894Z,-5.21
2022-12-18T04:26:26.538Z,-5.17
2022-12-18T04:28:54.075Z,-5.15
2022-12-18T04:31:21.787Z,-5.15
2022-12-18T04:33:49.471Z,-5.16
2022-12-18T04:36:17.468Z,-5.18
2022-12-18T04:38:45.348Z,-5.21
2022-12-18T04:41:12.907Z,-5.24
2022-12-18T04:43:40.816Z,-5.22
2022-12-18T04:46:09.782Z,-5.19
2022-12-18T04:48:38.282Z,-5.16
2022-12-18T04:51:07.072Z,-5.16
2022-12-18T04:53:34.977Z,-5.17
2022-12-18T04:56:07.524Z,-5.18
2022-12-18T04:58:36.315Z,-5.20
2022-12-18T05:01:04.806Z,-5.21
2022-12-18T05:03:32.580Z,-5.23
2022-12-18T05:06:00.384Z,-5.20
2022-12-18T05:08:27.976Z,-5.15
2022-12-18T05:11:10.585Z,-5.12
2022-12-18T05:13:39.505Z,-5.12
2022-12-18T05:16:08.817Z,-5.14
2022-12-18T05:18:37.664Z,-5.14
2022-12-18T05:21:05.531Z,-5.18
2022-12-18T05:23:33.326Z,-5.20
2022-12-18T05:26:03.301Z,-5.18
2022-12-18T05:28:32.952Z,-5.18
2022-12-18T05:31:03.045Z,-5.21
2022-12-18T05:33:34.002Z,-5.23
2022-12-18T05:36:03.779Z,-5.25
2022-12-18T05:38:33.080Z,-5.26
2022-12-18T05:41:01.170Z,-5.29
2022-12-18T05:43:29.614Z,-5.33
2022-12-18T05:45:57.665Z,-5.33
2022-12-18T05:48:25.272Z,-5.33
2022-12-18T05:50:53.053Z,-5.34
2022-12-18T05:53:21.440Z,-5.30
2022-12-18T05:55:49.241Z,-5.28
2022-12-18T05:58:17.420Z,-5.29
2022-12-18T06:00:46.761Z,-5.33
2022-12-18T06:03:15.054Z,-5.34
2022-12-18T06:05:45.453Z,-5.36
2022-12-18T06:08:14.241Z,-5.41
2022-12-18T06:10:42.719Z,-5.43
2022-12-18T06:13:10.594Z,-5.41
2022-12-18T06:15:38.580Z,-5.41
2022-12-18T06:18:06.253Z,-5.44
2022-12-18T06:20:34.288Z,-5.48
2022-12-18T06:23:01.975Z,-5.50
2022-12-18T06:25:29.749Z,-5.53
2022-12-18T06:27:57.556Z,-5.57
2022-12-18T06:30:25.747Z,-5.62
2022-12-18T06:32:56.750Z,-5.66
2022-12-18T06:35:24.989Z,-5.69
2022-12-18T06:37:52.639Z,-5.70
2022-12-18T06:40:20.712Z,-5.69
2022-12-18T06:42:48.451Z,-5.67
2022-12-18T06:45:16.425Z,-5.69
2022-12-18T06:47:44.355Z,-5.71
2022-12-18T06:50:12.551Z,-5.72
2022-12-18T06:52:40.700Z,-5.75
2022-12-18T06:55:09.004Z,-5.77
2022-12-18T06:57:37.142Z,-5.82
2022-12-18T07:00:07.020Z,-5.86
2022-12-18T07:02:35.052Z,-5.88
2022-12-18T07:05:07.602Z,-5.88
2022-12-18T07:07:38.487Z,-5.83
2022-12-18T07:10:06.341Z,-5.79
2022-12-18T07:12:34.103Z,-5.75
2022-12-18T07:15:02.249Z,-5.73
2022-12-18T07:17:29.983Z,-5.70
2022-12-18T07:19:57.799Z,-5.66
2022-12-18T07:22:28.797Z,-5.65
2022-12-18T07:24:56.460Z,-5.63
2022-12-18T07:27:24.284Z,-5.62
2022-12-18T07:29:52.193Z,-5.62
2022-12-18T07:32:19.832Z,-5.58
2022-12-18T07:34:47.622Z,-5.56
2022-12-18T07:37:15.522Z,-5.54
2022-12-18T07:39:43.288Z,-5.49
2022-12-18T07:42:11.030Z,-5.45
2022-12-18T07:44:38.895Z,-5.33
2022-12-18T07:47:10.498Z,-5.20
2022-12-18T07:49:40.198Z,-5.06
2022-12-18T07:52:08.105Z,-4.90
2022-12-18T07:54:36.089Z,-4.73
2022-12-18T07:57:07.443Z,-4.58
2022-12-18T07:59:40.497Z,-4.38
2022-12-18T08:02:08.533Z,-4.23
2022-12-18T08:04:36.512Z,-4.11
2022-12-18T08:07:04.497Z,-4.03
2022-12-18T08:09:32.531Z,-3.93
2022-12-18T08:12:00.369Z,-3.81
2022-12-18T08:14:27.998Z,-3.69
2022-12-18T08:16:55.679Z,-3.53
2022-12-18T08:19:23.399Z,-3.38
2022-12-18T08:21:51.185Z,-3.21
2022-12-18T08:24:18.953Z,-3.11
2022-12-18T08:27:06.686Z,-3.08
2022-12-18T08:29:34.689Z,-3.07
2022-12-18T08:32:02.683Z,-3.03
2022-12-18T08:34:30.621Z,-2.96
2022-12-18T08:36:58.818Z,-2.89
2022-12-18T08:39:26.660Z,-2.80
2022-12-18T08:41:54.336Z,-2.74
2022-12-18T08:44:21.896Z,-2.69
2022-12-18T08:46:50.326Z,-2.65
2022-12-18T08:49:18.228Z,-2.61
2022-12-18T08:51:46.035Z,-2.55
2022-12-18T08:54:13.723Z,-2.51
2022-12-18T08:56:41.291Z,-2.43
2022-12-18T08:59:13.136Z,-2.36
2022-12-18T09:01:46.270Z,-2.33
2022-12-18T09:04:14.268Z,-2.34
2022-12-18T09:06:41.963Z,-2.36
2022-12-18T09:09:10.609Z,-2.30
2022-12-18T09:11:38.485Z,-2.18
2022-12-18T09:14:06.066Z,-2.07
2022-12-18T09:16:34.524Z,-1.97
2022-12-18T09:19:04.824Z,-1.88
2022-12-18T09:21:37.084Z,-1.94
2022-12-18T09:24:08.652Z,-2.00
2022-12-18T09:26:37.040Z,-2.08
2022-12-18T09:29:05.266Z,-2.15
2022-12-18T09:31:33.035Z,-2.09
2022-12-18T09:34:00.620Z,-2.08
2022-12-18T09:36:28.594Z,-2.07
2022-12-18T09:38:56.221Z,-1.92
2022-12-18T09:41:46.193Z,-1.78
2022-12-18T09:44:32.132Z,-1.71
2022-12-18T09:47:18.284Z,-1.56
2022-12-18T09:49:50.327Z,-1.57
2022-12-18T09:52:42.999Z,-1.68
2022-12-18T09:55:32.200Z,-1.64
2022-12-18T09:58:10.648Z,-1.57
2022-12-18T10:00:38.628Z,-1.69
2022-12-18T10:03:16.905Z,-1.65
2022-12-18T10:06:07.358Z,-1.56
2022-12-18T10:08:55.617Z,-1.51
2022-12-18T10:11:51.968Z,-1.37
2022-12-18T10:14:33.583Z,-1.22
2022-12-18T10:17:19.333Z,-1.09
2022-12-18T10:20:20.161Z,-0.98
2022-12-18T10:23:09.438Z,-0.86
2022-12-18T10:25:37.117Z,-0.78
2022-12-18T10:28:16.392Z,-0.73
2022-12-18T10:30:44.661Z,-0.60
2022-12-18T10:33:17.508Z,-0.50
2022-12-18T10:35:47.183Z,-0.48
2022-12-18T10:38:14.724Z,-0.43
2022-12-18T10:40:53.775Z,-0.42
2022-12-18T10:43:36.084Z,-0.45
2022-12-18T10:46:09.818Z,-0.40
2022-12-18T10:48:58.673Z,-0.40
2022-12-18T10:51:38.506Z,-0.28
2022-12-18T10:54:16.681Z,-0.21
2022-12-18T10:56:45.326Z,-0.23
2022-12-18T10:59:17.396Z,-0.20
2022-12-18T11:01:53.532Z,-0.20
2022-12-18T11:04:24.676Z,-0.21
2022-12-18T11:07:12.789Z,-0.18
2022-12-18T11:09:41.656Z,-0.21
2022-12-18T11:12:20.849Z,-0.21
2022-12-18T11:14:51.697Z,-0.15
2022-12-18T11:17:40.108Z,-0.08
2022-12-18T11:20:40.914Z,-0.00
2022-12-18T11:23:14.317Z,0.13
2022-12-18T11:25:52.879Z,0.13
2022-12-18T11:28:37.118Z,0.23
2022-12-18T11:31:27.314Z,0.57
2022-12-18T11:34:27.512Z,0.88
2022-12-18T11:36:48.877Z,1.18
2022-12-18T11:39:41.848Z,1.30
2022-12-18T11:42:23.262Z,1.27
2022-12-18T11:45:00.520Z,1.11
2022-12-18T11:47:51.916Z,0.79
2022-12-18T11:50:25.454Z,0.53
2022-12-18T11:52:57.501Z,0.25
2022-12-18T11:55:41.042Z,-0.07
2022-12-18T11:58:14.527Z,-0.34
2022-12-18T12:00:58.235Z,-0.69
2022-12-18T12:03:41.236Z,-0.98
2022-12-18T12:06:30.943Z,-1.15
2022-12-18T12:09:19.075Z,-1.36
2022-12-18T12:12:17.431Z,-1.49
2022-12-18T12:15:04.936Z,-1.61
2022-12-18T12:18:11.635Z,-1.71
2022-12-18T12:21:03.992Z,-1.79
2022-12-18T12:24:01.079Z,-1.87
2022-12-18T12:26:39.959Z,-1.99
2022-12-18T12:29:29.599Z,-2.09
2022-12-18T12:32:18.568Z,-2.19
2022-12-18T12:35:19.862Z,-2.33
2022-12-18T12:37:56.164Z,-2.48
2022-12-18T12:43:48.058Z,-2.71
2022-12-18T12:46:22.852Z,-2.85
2022-12-18T12:48:57.793Z,-2.96
2022-12-18T12:51:34.644Z,-3.06
2022-12-18T12:54:06.383Z,-3.13
2022-12-18T12:56:47.984Z,-3.20
2022-12-18T12:59:29.253Z,-3.26
2022-12-18T13:02:18.817Z,-3.34
2022-12-18T13:05:34.651Z,-3.47
2022-12-18T13:08:11.448Z,-3.64
2022-12-18T13:10:44.972Z,-3.77
2022-12-18T13:13:18.289Z,-3.93
2022-12-18T13:16:07.491Z,-4.15
2022-12-18T13:18:36.221Z,-4.43
2022-12-18T13:21:20.214Z,-4.66
2022-12-18T13:23:47.850Z,-4.87
2022-12-18T13:26:21.926Z,-5.02
2022-12-18T13:28:55.312Z,-5.15
2022-12-18T13:31:41.776Z,-5.27
2022-12-18T13:34:28.397Z,-5.42
2022-12-18T13:37:40.597Z,-5.49
2022-12-18T13:40:45.628Z,-5.62
2022-12-18T13:43:24.882Z,-5.53
2022-12-18T13:46:01.619Z,-5.27
2022-12-18T13:48:32.367Z,-4.64
2022-12-18T13:51:00.563Z,-3.93
2022-12-18T13:53:33.989Z,-3.38
2022-12-18T13:56:03.668Z,-3.04
2022-12-18T13:58:32.000Z,-3.06
2022-12-18T14:00:59.782Z,-3.26
2022-12-18T14:03:29.581Z,-3.50
2022-12-18T14:06:02.144Z,-3.76
2022-12-18T14:08:43.039Z,-4.15
2022-12-18T14:11:23.301Z,-4.67
2022-12-18T14:13:51.558Z,-5.16
2022-12-18T14:16:19.416Z,-5.53
2022-12-18T14:18:55.017Z,-5.90
2022-12-18T14:21:27.598Z,-6.28
2022-12-18T14:24:20.112Z,-6.67
2022-12-18T14:26:50.521Z,-7.07
2022-12-18T14:29:24.977Z,-7.39
2022-12-18T14:32:17.755Z,-7.71
2022-12-18T14:34:53.807Z,-8.02
2022-12-18T14:37:26.918Z,-8.28
2022-12-18T14:39:55.190Z,-8.52
2022-12-18T14:42:23.561Z,-8.69
2022-12-18T14:45:12.873Z,-8.86
2022-12-18T14:47:38.895Z,-9.08
2022-12-18T14:50:14.981Z,-9.26
2022-12-18T14:52:42.639Z,-9.41
2022-12-18T14:55:21.381Z,-9.55
2022-12-18T14:57:55.873Z,-9.68
2022-12-18T15:00:26.459Z,-9.80
2022-12-18T15:02:56.505Z,-9.88
2022-12-18T15:05:30.337Z,-9.94
2022-12-18T15:08:00.560Z,-10.01
2022-12-18T15:10:34.684Z,-10.09
2022-12-18T15:13:02.712Z,-10.22
2022-12-18T15:15:50.295Z,-10.38
2022-12-18T15:18:43.052Z,-10.53
2022-12-18T15:21:17.238Z,-10.65
2022-12-18T15:23:45.057Z,-10.72
2022-12-18T15:26:15.484Z,-10.79
2022-12-18T15:28:49.935Z,-10.91
2022-12-18T15:31:17.999Z,-11.00
2022-12-18T15:34:02.213Z,-11.03
2022-12-18T15:36:30.302Z,-11.07
2022-12-18T15:39:04.206Z,-11.13
2022-12-18T15:41:36.026Z,-11.10
2022-12-18T15:44:24.084Z,-11.07
2022-12-18T15:46:51.835Z,-11.12
2022-12-18T15:49:19.764Z,-11.16
2022-12-18T15:51:55.060Z,-11.17
2022-12-18T15:54:23.526Z,-11.21
2022-12-18T15:56:51.121Z,-11.27
2022-12-18T15:59:21.310Z,-11.35
2022-12-18T16:01:51.647Z,-11.41
2022-12-18T16:04:22.152Z,-11.43
2022-12-18T16:07:13.732Z,-11.42
2022-12-18T16:09:40.029Z,-11.41
2022-12-18T16:12:16.462Z,-11.43
2022-12-18T16:14:44.388Z,-11.43
2022-12-18T16:17:13.980Z,-11.48
2022-12-18T16:19:41.795Z,-11.49
2022-12-18T16:22:21.435Z,-11.51
2022-12-18T16:24:49.914Z,-11.49
2022-12-18T16:27:17.816Z,-11.46
2022-12-18T16:29:46.072Z,-11.45
2022-12-18T16:32:18.715Z,-11.42
2022-12-18T16:34:47.366Z,-11.41
2022-12-18T16:37:16.367Z,-11.44
2022-12-18T16:39:44.773Z,-11.45
2022-12-18T16:42:20.833Z,-11.51
2022-12-18T16:44:50.418Z,-11.61
2022-12-18T16:47:19.300Z,-11.74
2022-12-18T16:49:46.874Z,-11.87
2022-12-18T16:52:14.949Z,-11.93
2022-12-18T16:54:42.900Z,-11.99
2022-12-18T16:57:15.739Z,-12.08
2022-12-18T16:59:43.759Z,-12.12
2022-12-18T17:02:23.406Z,-12.17
2022-12-18T17:04:57.503Z,-12.23
2022-12-18T17:07:26.586Z,-12.27
2022-12-18T17:09:54.674Z,-12.29
2022-12-18T17:12:22.514Z,-12.29
2022-12-18T17:14:50.598Z,-12.24
2022-12-18T17:17:21.885Z,-12.17
2022-12-18T17:19:51.642Z,-12.08
2022-12-18T17:22:20.919Z,-11.85
2022-12-18T17:24:48.475Z,-11.70
2022-12-18T17:27:16.419Z,-11.61
2022-12-18T17:29:47.886Z,-11.53
2022-12-18T17:32:17.261Z,-11.49
2022-12-18T17:34:45.218Z,-11.44
2022-12-18T17:37:13.393Z,-11.23
2022-12-18T17:39:41.414Z,-11.03
2022-12-18T17:42:09.013Z,-10.77
2022-12-18T17:44:38.605Z,-10.61
2022-12-18T17:47:07.196Z,-10.44
2022-12-18T17:49:34.863Z,-10.41
2022-12-18T17:52:02.425Z,-10.42
2022-12-18T17:54:30.375Z,-10.48
2022-12-18T17:56:57.932Z,-10.60
2022-12-18T17:59:25.475Z,-10.76
2022-12-18T18:01:53.221Z,-10.95
2022-12-18T18:04:21.565Z,-11.18
2022-12-18T18:06:49.209Z,-11.36
2022-12-18T18:09:54.829Z,-11.52
2022-12-18T18:13:00.308Z,-11.73
2022-12-18T18:15:54.755Z,-11.95
2022-12-18T18:18:22.751Z,-12.12
2022-12-18T18:20:53.999Z,-12.32
2022-12-18T18:23:22.137Z,-12.50
2022-12-18T18:25:49.910Z,-12.61
2022-12-18T18:28:17.800Z,-12.70
2022-12-18T18:30:45.515Z,-12.76
2022-12-18T18:33:13.161Z,-12.82
2022-12-18T18:35:53.922Z,-12.90
2022-12-18T18:38:22.043Z,-13.02
2022-12-18T18:41:01.159Z,-13.11
2022-12-18T18:43:29.827Z,-13.18
2022-12-18T18:45:59.042Z,-13.23
2022-12-18T18:48:28.757Z,-13.22
2022-12-18T18:51:07.279Z,-13.21
2022-12-18T18:53:40.220Z,-13.16
2022-12-18T18:58:56.814Z,-13.02
2022-12-18T19:01:25.840Z,-12.92
2022-12-18T19:03:54.407Z,-12.82
2022-12-18T19:06:25.497Z,-12.73
2022-12-18T19:08:53.955Z,-12.67
2022-12-18T19:11:24.461Z,-12.63
2022-12-18T19:13:52.876Z,-12.60
2022-12-18T19:16:20.576Z,-12.59
2022-12-18T19:18:50.437Z,-12.59
2022-12-18T19:21:18.318Z,-12.62
2022-12-18T19:23:45.870Z,-12.66
2022-12-18T19:26:27.842Z,-12.68
2022-12-18T19:29:07.122Z,-12.71
2022-12-18T19:31:36.955Z,-12.76
2022-12-18T19:34:06.413Z,-12.83
2022-12-18T19:36:36.904Z,-12.93
2022-12-18T19:39:15.945Z,-13.05
2022-12-18T19:41:44.460Z,-13.14
2022-12-18T19:44:14.770Z,-13.21
2022-12-18T19:46:43.073Z,-13.23
2022-12-18T19:49:11.977Z,-13.24
2022-12-18T19:51:46.802Z,-13.29
2022-12-18T19:54:17.241Z,-13.34
2022-12-18T19:56:46.387Z,-13.39
2022-12-18T19:59:15.656Z,-13.44
2022-12-18T20:01:43.538Z,-13.50
2022-12-18T20:04:11.604Z,-13.57
2022-12-18T20:06:48.387Z,-13.70
2022-12-18T20:09:17.039Z,-13.81
2022-12-18T20:11:45.772Z,-13.90
2022-12-18T20:14:18.753Z,-14.00
2022-12-18T20:16:51.869Z,-14.19
2022-12-18T20:19:20.758Z,-14.33
2022-12-18T20:21:48.715Z,-14.35
2022-12-18T20:24:16.690Z,-14.33
2022-12-18T20:26:44.450Z,-14.29
2022-12-18T20:29:12.020Z,-14.30
2022-12-18T20:31:40.319Z,-14.30
2022-12-18T20:34:08.296Z,-14.30
2022-12-18T20:36:37.672Z,-14.29
2022-12-18T20:39:09.847Z,-14.30
2022-12-18T20:41:39.331Z,-14.38
2022-12-18T20:44:23.090Z,-14.52
2022-12-18T20:46:54.341Z,-14.68
2022-12-18T20:49:23.613Z,-14.73
2022-12-18T20:51:55.746Z,-14.77
2022-12-18T20:54:26.460Z,-14.90
2022-12-18T20:56:54.795Z,-14.98
2022-12-18T20:59:23.263Z,-15.04
2022-12-18T21:01:51.722Z,-15.15
2022-12-18T21:04:19.923Z,-15.28
2022-12-18T21:06:52.334Z,-15.41
2022-12-18T21:09:23.869Z,-15.52
2022-12-18T21:11:51.621Z,-15.53
2022-12-18T21:14:25.961Z,-15.59
2022-12-18T21:16:54.558Z,-15.64
2022-12-18T21:19:25.092Z,-15.63
2022-12-18T21:21:54.571Z,-15.58
2022-12-18T21:24:22.905Z,-15.60
2022-12-18T21:26:51.756Z,-15.63
2022-12-18T21:29:22.887Z,-15.66
2022-12-18T21:31:53.948Z,-15.70
2022-12-18T21:34:26.975Z,-15.79
2022-12-18T21:36:58.103Z,-15.80
2022-12-18T21:39:29.148Z,-15.76
2022-12-18T21:41:57.684Z,-15.69
2022-12-18T21:44:25.910Z,-15.65
2022-12-18T21:46:59.807Z,-15.68
2022-12-18T21:49:31.554Z,-15.70
2022-12-18T21:52:00.616Z,-15.70
2022-12-18T21:54:29.428Z,-15.75
2022-12-18T21:56:59.272Z,-15.78
2022-12-18T21:59:36.505Z,-15.83
2022-12-18T22:02:07.519Z,-15.86
2022-12-18T22:04:35.455Z,-15.94
2022-12-18T22:07:05.329Z,-15.97
2022-12-18T22:09:33.783Z,-15.94
2022-12-18T22:12:02.393Z,-15.86
2022-12-18T22:14:29.922Z,-15.76
2022-12-18T22:16:57.722Z,-15.60
2022-12-18T22:19:26.409Z,-15.43
2022-12-18T22:21:55.023Z,-15.30
2022-12-18T22:24:25.380Z,-15.16
2022-12-18T22:26:54.847Z,-14.94
2022-12-18T22:29:30.017Z,-14.74
2022-12-18T22:31:59.919Z,-14.56
2022-12-18T22:34:28.040Z,-14.36
2022-12-18T22:36:55.968Z,-14.12
2022-12-18T22:39:27.275Z,-13.82
2022-12-18T22:41:57.824Z,-13.55
2022-12-18T22:44:25.452Z,-13.39
2022-12-18T22:47:05.425Z,-13.34
2022-12-18T22:49:35.871Z,-13.35
2022-12-18T22:52:06.213Z,-13.43
2022-12-18T22:54:34.254Z,-13.51
2022-12-18T22:57:02.140Z,-13.58
2022-12-18T22:59:30.992Z,-13.70
2022-12-18T23:01:59.592Z,-13.75
2022-12-18T23:04:27.967Z,-13.74
2022-12-18T23:06:58.765Z,-13.68
2022-12-18T23:09:26.508Z,-13.64
2022-12-18T23:11:54.289Z,-13.65
2022-12-18T23:14:22.478Z,-13.80
2022-12-18T23:16:50.767Z,-13.94
2022-12-18T23:19:23.431Z,-14.07
2022-12-18T23:21:51.811Z,-14.06
2022-12-18T23:24:22.204Z,-14.01
2022-12-18T23:26:49.758Z,-14.10
2022-12-18T23:29:17.345Z,-14.19
2022-12-18T23:31:45.224Z,-14.27
2022-12-18T23:34:14.579Z,-14.37
2022-12-18T23:36:46.251Z,-14.43
2022-12-18T23:39:28.608Z,-14.41
2022-12-18T23:42:00.713Z,-14.36
2022-12-18T23:44:28.503Z,-14.32
2022-12-18T23:46:56.138Z,-14.26
2022-12-18T23:49:24.077Z,-14.20
2022-12-18T23:51:54.213Z,-14.10
2022-12-18T23:54:22.410Z,-14.05
2022-12-18T23:56:55.354Z,-14.05
2022-12-18T23:59:25.577Z,-14.19
